Time;durP1;ratioP1;P1;durP2;ratioP2;P2;SDS_P1;SDS_P2;PMS_P1;PMS_P2;Temp;Humidity;BMP_temperature;BMP_pressure;BME280_temperature;BME280_humidity;BME280_pressure;Samples;Min_cycle;Max_cycle;Signal;HPM_P1;HPM_P2
2022/09/02 00:00:41;;;;;;;10.00;7.95;;;;;;;21.66;53.94;93576.59;4973969;28;20026;-80
2022/09/02 00:03:07;;;;;;;11.93;8.43;;;;;;;21.80;53.73;93592.84;4972154;28;20034;-79
2022/09/02 00:05:32;;;;;;;18.90;8.00;;;;;;;21.74;54.43;93591.69;4973716;28;20402;-80
2022/09/02 00:07:57;;;;;;;9.35;8.02;;;;;;;21.66;54.10;93573.88;4970790;28;20399;-79
2022/09/02 00:10:23;;;;;;;10.57;8.45;;;;;;;21.55;54.39;93575.84;4974078;28;20263;-80
2022/09/02 00:12:49;;;;;;;10.38;7.43;;;;;;;21.44;54.62;93556.88;4972130;28;20134;-82
2022/09/02 00:15:14;;;;;;;9.57;8.00;;;;;;;21.49;54.71;93574.66;4973623;28;20034;-79
2022/09/02 00:17:39;;;;;;;8.93;7.88;;;;;;;21.60;54.95;93591.69;4970756;28;20030;-79
2022/09/02 00:20:05;;;;;;;13.05;8.40;;;;;;;21.29;55.54;93553.41;4973052;28;20584;-79
2022/09/02 00:22:31;;;;;;;14.15;8.20;;;;;;;21.13;55.85;93584.69;4974322;28;20031;-81
2022/09/02 00:24:56;;;;;;;9.23;7.85;;;;;;;21.27;56.00;93601.69;4972143;28;20086;-80
2022/09/02 00:27:22;;;;;;;10.40;7.75;;;;;;;21.09;56.14;93592.81;4962403;28;20018;-79
2022/09/02 00:29:48;;;;;;;13.55;8.65;;;;;;;21.14;56.17;93613.28;4972426;28;20037;-79
2022/09/02 00:32:13;;;;;;;16.02;8.55;;;;;;;21.22;56.13;93610.19;4971971;28;20038;-79
2022/09/02 00:34:39;;;;;;;9.20;8.30;;;;;;;20.82;56.11;93532.13;4974153;28;20486;-80
2022/09/02 00:37:04;;;;;;;10.90;8.18;;;;;;;21.11;55.90;93570.78;4971811;28;20022;-81
2022/09/02 00:39:29;;;;;;;10.73;8.88;;;;;;;21.35;55.59;93597.84;4971429;28;20495;-80
2022/09/02 00:41:55;;;;;;;13.15;8.77;;;;;;;21.31;55.33;93583.56;4969907;28;20036;-80
2022/09/02 00:44:21;;;;;;;13.00;9.35;;;;;;;21.37;55.60;93595.53;4971015;28;20644;-81
2022/09/02 00:46:48;;;;;;;11.48;7.88;;;;;;;21.26;55.33;93578.53;4971643;28;20193;-80
2022/09/02 00:49:23;;;;;;;11.02;8.40;;;;;;;21.33;55.37;93580.44;4971379;28;20038;-80
2022/09/02 00:52:14;;;;;;;9.85;8.55;;;;;;;21.53;55.71;93616.00;4971816;28;20481;-80
2022/09/02 00:54:47;;;;;;;11.77;9.13;;;;;;;21.45;56.02;93616.03;4972327;28;20093;-80
2022/09/02 00:57:18;;;;;;;10.57;8.68;;;;;;;21.49;55.94;93620.66;4973108;28;20156;-79
2022/09/02 01:00:01;;;;;;;11.00;9.02;;;;;;;21.50;55.88;93630.31;4973418;28;20018;-80
2022/09/02 01:02:27;;;;;;;10.52;8.60;;;;;;;21.42;56.24;93619.50;4972516;28;20524;-80
2022/09/02 01:04:55;;;;;;;10.38;8.43;;;;;;;21.36;56.53;93602.09;4970976;28;20030;-80
2022/09/02 01:07:22;;;;;;;14.52;9.15;;;;;;;21.01;56.82;93575.03;4972260;28;20643;-81
2022/09/02 01:09:50;;;;;;;13.48;9.32;;;;;;;21.27;56.29;93620.63;4970980;28;20030;-79
2022/09/02 01:12:15;;;;;;;14.40;9.20;;;;;;;21.28;56.16;93616.00;4972335;28;20137;-79
2022/09/02 01:14:41;;;;;;;10.82;8.15;;;;;;;21.25;56.18;93628.38;4971134;28;20109;-81
2022/09/02 01:17:07;;;;;;;12.35;9.52;;;;;;;21.29;56.06;93618.31;4973347;28;20125;-80
2022/09/02 01:19:42;;;;;;;11.90;9.68;;;;;;;21.10;56.46;93599.00;4971190;28;20030;-81
2022/09/02 01:22:33;;;;;;;13.43;8.25;;;;;;;21.31;57.00;93621.44;4972259;28;20029;-80
2022/09/02 01:25:11;;;;;;;10.45;8.20;;;;;;;21.11;57.21;93585.09;4969654;28;20443;-79
2022/09/02 01:27:37;;;;;;;11.10;9.10;;;;;;;21.33;57.77;93624.50;4971052;28;20085;-79
2022/09/02 01:30:05;;;;;;;13.30;8.30;;;;;;;21.27;57.36;93612.50;4970709;28;20032;-82
2022/09/02 01:32:30;;;;;;;10.63;6.53;;;;;;;21.11;57.27;93585.09;4972410;28;20736;-79
2022/09/02 01:34:56;;;;;;;7.82;6.78;;;;;;;21.31;57.40;93604.44;4956753;28;20034;-79
2022/09/02 01:37:22;;;;;;;8.88;6.72;;;;;;;21.26;57.42;93573.13;4967038;28;20026;-79
2022/09/02 01:39:48;;;;;;;7.22;6.22;;;;;;;21.31;57.71;93567.34;4962073;28;20045;-78
2022/09/02 01:42:14;;;;;;;7.47;4.82;;;;;;;21.26;57.75;93556.13;4971806;28;20510;-79
2022/09/02 01:44:42;;;;;;;5.10;3.70;;;;;;;21.43;57.44;93563.44;4960818;28;20105;-80
2022/09/02 01:47:17;;;;;;;5.90;3.72;;;;;;;21.20;57.96;93555.72;4971498;28;20026;-79
2022/09/02 01:49:43;;;;;;;6.07;3.40;;;;;;;21.05;58.00;93531.78;4970971;28;20027;-78
2022/09/02 01:52:09;;;;;;;4.78;3.72;;;;;;;21.14;58.42;93546.47;4962637;28;20026;-78
2022/09/02 01:54:35;;;;;;;5.00;3.88;;;;;;;21.22;58.79;93561.50;4971864;28;20149;-79
2022/09/02 01:57:00;;;;;;;6.15;3.97;;;;;;;20.87;58.82;93504.75;4959343;28;20030;-80
2022/09/02 01:59:26;;;;;;;6.22;3.53;;;;;;;21.03;58.60;93534.84;4969553;28;20065;-79
2022/09/02 02:01:51;;;;;;;6.30;3.47;;;;;;;20.94;58.67;93537.16;4956851;28;20204;-81
2022/09/02 02:04:17;;;;;;;3.63;2.97;;;;;;;20.99;59.11;93544.91;4971631;28;20034;-80
2022/09/02 02:06:44;;;;;;;5.43;3.95;;;;;;;20.84;59.41;93517.06;4955130;28;20046;-81
2022/09/02 02:09:10;;;;;;;9.82;3.45;;;;;;;21.01;59.10;93539.88;4971101;28;20033;-78
2022/09/02 02:11:36;;;;;;;4.22;3.75;;;;;;;21.07;59.59;93551.09;4971485;28;20038;-80
2022/09/02 02:14:02;;;;;;;6.88;3.47;;;;;;;20.91;59.84;93554.16;4969586;28;20031;-80
2022/09/02 02:16:28;;;;;;;6.82;3.38;;;;;;;20.84;59.63;93548.72;4955026;28;20049;-80
2022/09/02 02:18:53;;;;;;;5.45;3.40;;;;;;;20.90;59.76;93552.63;4970828;28;20146;-78
2022/09/02 02:21:19;;;;;;;4.05;3.17;;;;;;;20.76;59.76;93520.13;4970447;28;20129;-79
2022/09/02 02:23:44;;;;;;;6.32;4.05;;;;;;;20.77;59.99;93527.09;4970921;28;20032;-81
2022/09/02 02:26:10;;;;;;;6.53;3.67;;;;;;;20.74;60.10;93522.44;4972066;28;20031;-78
2022/09/02 02:28:35;;;;;;;4.97;3.40;;;;;;;20.94;60.02;93554.16;4969328;28;20402;-80
2022/09/02 02:31:01;;;;;;;5.10;3.78;;;;;;;20.95;59.93;93565.75;4961682;28;20060;-81
2022/09/02 02:33:27;;;;;;;5.28;3.80;;;;;;;20.90;60.18;93560.72;4970520;28;20895;-80
2022/09/02 02:35:54;;;;;;;7.18;4.68;;;;;;;20.85;59.94;93553.75;4970183;28;20026;-78
2022/09/02 02:38:20;;;;;;;5.82;4.38;;;;;;;20.81;58.95;93544.09;4967321;28;20036;-79
2022/09/02 02:40:45;;;;;;;4.25;3.85;;;;;;;20.53;58.92;93515.84;4953696;28;20022;-80
2022/09/02 02:43:10;;;;;;;6.82;4.03;;;;;;;20.82;58.76;93559.16;4969728;28;20053;-79
2022/09/02 02:45:38;;;;;;;6.88;4.45;;;;;;;20.76;58.92;93544.47;4970485;28;20062;-78
2022/09/02 02:48:04;;;;;;;5.85;4.97;;;;;;;20.84;59.36;93565.69;4969103;28;20030;-80
2022/09/02 02:50:29;;;;;;;6.57;5.30;;;;;;;20.83;58.84;93563.38;4960830;28;20506;-79
2022/09/02 02:52:55;;;;;;;7.13;5.47;;;;;;;20.74;58.78;93549.47;4971303;28;20026;-79
2022/09/02 02:55:22;;;;;;;8.75;6.03;;;;;;;20.90;59.09;93575.00;4971819;28;20026;-81
2022/09/02 02:57:48;;;;;;;7.90;5.63;;;;;;;20.59;58.98;93525.13;4970888;28;20117;-80
2022/09/02 03:00:19;;;;;;;9.20;4.82;;;;;;;20.89;58.97;93572.69;4969088;28;20084;-79
2022/09/02 03:02:45;;;;;;;6.18;4.85;;;;;;;20.75;58.92;93551.00;4953010;28;20113;-80
2022/09/02 03:05:13;;;;;;;5.13;4.57;;;;;;;20.90;58.40;93572.31;4971647;28;20532;-79
2022/09/02 03:07:39;;;;;;;5.00;4.07;;;;;;;20.90;57.40;93563.44;4969694;28;20110;-81
2022/09/02 03:10:07;;;;;;;3.90;3.53;;;;;;;20.87;57.07;93567.69;4970368;28;20027;-79
2022/09/02 03:12:33;;;;;;;4.78;3.33;;;;;;;20.88;57.55;93579.25;4971700;28;20041;-79
2022/09/02 03:14:59;;;;;;;4.88;3.17;;;;;;;20.81;57.68;93571.88;4970168;28;20061;-80
2022/09/02 03:17:25;;;;;;;5.38;2.75;;;;;;;20.83;57.25;93568.78;4971398;28;20033;-80
2022/09/02 03:19:50;;;;;;;4.07;2.75;;;;;;;20.78;57.50;93561.03;4952115;28;20390;-78
2022/09/02 03:22:16;;;;;;;12.00;4.07;;;;;;;20.81;57.39;93552.97;4970444;28;20054;-80
2022/09/02 03:24:41;;;;;;;4.70;4.05;;;;;;;20.60;57.56;93521.25;4957084;28;20189;-81
2022/09/02 03:27:07;;;;;;;5.72;4.05;;;;;;;20.90;57.48;93558.81;4969733;28;20892;-78
2022/09/02 03:29:32;;;;;;;5.78;4.07;;;;;;;20.91;56.82;93565.75;4953304;28;20615;-81
2022/09/02 03:31:59;;;;;;;7.60;4.60;;;;;;;20.82;57.76;93556.44;4969912;28;20033;-78
2022/09/02 03:34:25;;;;;;;6.25;4.97;;;;;;;20.65;57.62;93535.53;4958922;28;20125;-78
2022/09/02 03:36:50;;;;;;;5.97;4.63;;;;;;;20.84;57.75;93570.31;4969650;28;20027;-79
2022/09/02 03:39:16;;;;;;;6.20;4.10;;;;;;;20.89;56.82;93581.56;4970730;28;20026;-79
2022/09/02 03:41:41;;;;;;;4.55;3.65;;;;;;;20.72;56.78;93559.91;4970840;28;20034;-80
2022/09/02 03:44:08;;;;;;;6.10;4.35;;;;;;;20.83;57.09;93585.00;4970286;28;20026;-79
2022/09/02 03:46:34;;;;;;;4.55;3.47;;;;;;;20.80;57.57;93591.19;4970356;28;20073;-80
2022/09/02 03:48:59;;;;;;;8.57;4.68;;;;;;;20.50;58.33;93546.31;4970724;28;20626;-77
2022/09/02 03:51:26;;;;;;;5.68;3.70;;;;;;;20.78;58.47;93598.88;4969257;28;20035;-80
2022/09/02 03:53:52;;;;;;;5.22;4.10;;;;;;;20.79;58.31;93595.81;4972519;28;20038;-78
2022/09/02 03:56:18;;;;;;;3.88;3.35;;;;;;;20.77;58.77;93602.75;4970131;28;20031;-78
2022/09/02 03:58:46;;;;;;;4.63;3.55;;;;;;;20.56;58.92;93585.31;4970879;28;20577;-78
2022/09/02 04:01:18;;;;;;;5.20;3.80;;;;;;;20.55;58.76;93581.06;4971316;28;20034;-77
2022/09/02 04:03:44;;;;;;;6.75;4.40;;;;;;;20.71;58.61;93609.69;4973066;28;20113;-78
2022/09/02 04:06:11;;;;;;;6.60;4.05;;;;;;;20.74;58.69;93606.22;4973716;28;20030;-80
2022/09/02 04:08:38;;;;;;;5.30;3.70;;;;;;;20.58;58.81;93585.69;4972830;28;20117;-77
2022/09/02 04:11:08;;;;;;;4.95;4.18;;;;;;;20.63;58.60;93594.63;4972389;28;20019;-80
2022/09/02 04:13:35;;;;;;;5.20;4.05;;;;;;;20.68;58.77;93610.47;4972257;28;20026;-80
2022/09/02 04:16:06;;;;;;;6.15;4.60;;;;;;;20.76;58.93;93644.44;4975471;28;20026;-80
2022/09/02 04:18:31;;;;;;;7.78;4.63;;;;;;;20.64;59.09;93631.25;4973501;28;20030;-78
2022/09/02 04:20:59;;;;;;;6.32;4.13;;;;;;;20.69;59.40;93650.59;4973203;28;20434;-79
2022/09/02 04:23:24;;;;;;;6.07;4.82;;;;;;;20.72;59.49;93649.06;4973161;28;20081;-78
2022/09/02 04:25:50;;;;;;;7.10;4.97;;;;;;;20.68;59.33;93642.88;4972459;28;20023;-77
2022/09/02 04:28:15;;;;;;;5.95;4.72;;;;;;;20.73;59.25;93642.50;4972437;28;20030;-77
2022/09/02 04:30:42;;;;;;;7.20;5.82;;;;;;;20.61;59.26;93627.41;4974480;28;20026;-79
2022/09/02 04:33:07;;;;;;;5.85;5.25;;;;;;;20.59;59.03;93618.91;4971159;28;20384;-78
2022/09/02 04:35:34;;;;;;;7.88;5.32;;;;;;;20.56;59.27;93614.25;4972042;28;20054;-78
2022/09/02 04:38:00;;;;;;;6.00;4.68;;;;;;;20.75;59.15;93649.06;4954855;28;20034;-78
2022/09/02 04:40:26;;;;;;;6.32;4.78;;;;;;;20.65;59.32;93638.22;4972878;28;20054;-79
2022/09/02 04:42:52;;;;;;;7.35;5.80;;;;;;;20.65;59.45;93643.63;4972321;28;20595;-77
2022/09/02 04:45:18;;;;;;;6.90;5.32;;;;;;;20.46;58.84;93610.38;4973336;28;20022;-78
2022/09/02 04:47:43;;;;;;;7.25;5.35;;;;;;;20.71;59.02;93659.09;4970871;28;20021;-79
2022/09/02 04:50:09;;;;;;;7.05;5.70;;;;;;;20.52;59.46;93641.28;4957221;28;20026;-80
2022/09/02 04:52:35;;;;;;;6.82;5.82;;;;;;;20.57;59.58;93646.31;4971929;28;20593;-81
2022/09/02 04:55:00;;;;;;;7.95;5.32;;;;;;;20.65;59.40;93659.84;4972709;28;20142;-81
2022/09/02 04:57:26;;;;;;;7.05;5.82;;;;;;;20.65;59.59;93659.84;4972848;28;20664;-82
2022/09/02 04:59:52;;;;;;;8.77;5.80;;;;;;;20.53;59.39;93640.09;4974506;28;20034;-77
2022/09/02 05:02:19;;;;;;;6.85;4.97;;;;;;;20.47;59.25;93633.53;4960968;28;20027;-79
2022/09/02 05:04:45;;;;;;;9.57;5.75;;;;;;;20.47;59.74;93638.16;4972546;28;20030;-80
2022/09/02 05:07:10;;;;;;;6.43;4.82;;;;;;;20.62;59.93;93666.00;4973393;28;20037;-77
2022/09/02 05:09:36;;;;;;;7.50;5.28;;;;;;;20.47;59.96;93638.94;4961257;28;20279;-77
2022/09/02 05:12:03;;;;;;;6.20;4.47;;;;;;;20.62;60.02;93663.31;4972390;28;20036;-82
2022/09/02 05:14:29;;;;;;;5.22;4.15;;;;;;;20.65;59.67;93665.25;4973362;28;20030;-79
2022/09/02 05:16:54;;;;;;;5.90;4.68;;;;;;;20.59;59.63;93656.72;4971840;28;20041;-81
2022/09/02 05:19:22;;;;;;;6.47;5.00;;;;;;;20.58;59.36;93661.34;4972829;28;20033;-82
2022/09/02 05:21:49;;;;;;;6.10;4.30;;;;;;;20.70;59.69;93678.38;4961448;28;20486;-81
2022/09/02 05:24:15;;;;;;;6.88;5.03;;;;;;;20.64;59.52;93666.38;4973183;28;20505;-79
2022/09/02 05:26:43;;;;;;;6.63;4.47;;;;;;;20.54;59.26;93644.34;4972161;28;20026;-80
2022/09/02 05:29:10;;;;;;;5.82;4.65;;;;;;;20.76;58.97;93683.06;4972125;28;20026;-81
2022/09/02 05:31:37;;;;;;;6.63;4.63;;;;;;;20.67;58.98;93660.25;4973120;28;20415;-78
2022/09/02 05:34:03;;;;;;;8.20;4.97;;;;;;;20.67;59.07;93665.66;4968608;28;20651;-82
2022/09/02 05:36:31;;;;;;;6.05;5.40;;;;;;;20.78;58.98;93677.25;4955471;28;20545;-78
2022/09/02 05:38:57;;;;;;;5.03;4.10;;;;;;;20.53;59.09;93637.41;4969779;28;20026;-80
2022/09/02 05:41:23;;;;;;;5.68;4.82;;;;;;;20.71;59.09;93661.81;4970491;28;20509;-80
2022/09/02 05:43:50;;;;;;;11.57;5.28;;;;;;;20.80;59.22;93670.31;4972833;28;20019;-79
2022/09/02 05:46:19;;;;;;;6.00;4.75;;;;;;;20.42;59.30;93608.81;4971860;28;20022;-80
2022/09/02 05:51:29;;;;;;;7.15;4.22;;;;;;;20.82;58.86;93659.16;4972223;28;20580;-80
2022/09/02 05:53:58;;;;;;;8.10;3.95;;;;;;;20.83;58.34;93658.75;4971598;28;20105;-81
2022/09/02 05:56:23;;;;;;;4.63;4.00;;;;;;;20.66;57.64;93637.84;4971357;28;20026;-77
2022/09/02 05:58:50;;;;;;;4.80;3.78;;;;;;;20.67;57.87;93627.81;4973070;28;20025;-79
2022/09/02 06:01:17;;;;;;;6.28;4.35;;;;;;;20.83;57.85;93649.84;4959695;28;20027;-80
2022/09/02 06:03:43;;;;;;;6.43;4.40;;;;;;;20.83;57.53;93639.81;4971911;28;20490;-80
2022/09/02 06:06:09;;;;;;;4.75;3.35;;;;;;;20.91;57.10;93651.47;4969873;28;20394;-80
2022/09/02 06:08:35;;;;;;;5.15;3.60;;;;;;;20.90;57.76;93658.03;4972569;28;20026;-79
2022/09/02 06:11:07;;;;;;;6.10;4.40;;;;;;;20.75;57.76;93634.78;4960614;28;20058;-81
2022/09/02 06:13:39;;;;;;;5.78;3.60;;;;;;;20.93;56.69;93649.16;4970483;28;20494;-79
2022/09/02 06:16:05;;;;;;;6.45;4.15;;;;;;;20.94;56.76;93656.88;4970958;28;20029;-82
2022/09/02 06:18:31;;;;;;;4.72;3.92;;;;;;;20.88;56.58;93647.59;4972470;28;20030;-79
2022/09/02 06:20:57;;;;;;;5.38;3.83;;;;;;;20.86;57.19;93643.72;4973152;28;20050;-80
2022/09/02 06:23:22;;;;;;;6.45;3.83;;;;;;;20.91;56.93;93652.25;4969485;28;20399;-82
2022/09/02 06:25:49;;;;;;;5.75;3.55;;;;;;;20.80;56.95;93634.41;4953672;28;20054;-79
2022/09/02 06:28:16;;;;;;;6.45;4.35;;;;;;;20.94;57.04;93661.50;4971620;28;20033;-79
2022/09/02 06:30:43;;;;;;;6.30;3.65;;;;;;;20.89;57.49;93637.56;4970577;28;21130;-81
2022/09/02 06:33:10;;;;;;;5.80;4.57;;;;;;;21.07;56.88;93665.41;4971890;28;20078;-79
2022/09/02 06:35:39;;;;;;;8.43;4.30;;;;;;;21.08;56.90;93672.38;4970305;28;20057;-79
2022/09/02 06:38:06;;;;;;;6.85;4.05;;;;;;;20.93;57.52;93643.75;4969621;28;20018;-80
2022/09/02 06:40:32;;;;;;;5.35;3.53;;;;;;;21.06;56.72;93666.59;4971516;28;20724;-81
2022/09/02 06:42:57;;;;;;;5.18;4.03;;;;;;;21.02;57.16;93660.41;4970911;28;20030;-79
2022/09/02 06:45:23;;;;;;;8.75;5.82;;;;;;;21.08;57.80;93679.69;4970806;28;20606;-81
2022/09/02 06:47:49;;;;;;;8.05;5.18;;;;;;;20.93;58.45;93655.34;4970240;28;20752;-80
2022/09/02 06:50:15;;;;;;;6.05;5.10;;;;;;;20.90;58.18;93652.63;4971650;28;20026;-79
2022/09/02 06:52:41;;;;;;;8.90;5.50;;;;;;;21.09;57.76;93679.31;4958106;28;20605;-79
2022/09/02 06:55:07;;;;;;;7.07;4.78;;;;;;;21.18;58.54;93687.06;4970200;28;20117;-80
2022/09/02 06:57:32;;;;;;;6.07;3.97;;;;;;;21.12;58.05;93683.97;4970442;28;20387;-80
2022/09/02 06:59:58;;;;;;;7.10;4.47;;;;;;;21.18;57.49;93687.84;4970072;28;20029;-80
2022/09/02 07:02:23;;;;;;;4.50;3.63;;;;;;;21.14;57.65;93676.25;4970019;28;20018;-82
2022/09/02 07:07:38;;;;;;;4.05;3.42;;;;;;;21.29;57.17;93693.28;4971703;28;20406;-80
2022/09/02 07:10:06;;;;;;;3.97;3.53;;;;;;;21.29;56.61;93688.66;4970725;28;20022;-81
2022/09/02 07:12:33;;;;;;;6.68;4.10;;;;;;;21.14;56.77;93670.84;4969739;28;20407;-78
2022/09/02 07:14:59;;;;;;;5.00;3.97;;;;;;;21.16;56.68;93671.25;4970158;28;20110;-79
2022/09/02 07:17:25;;;;;;;5.70;3.67;;;;;;;21.23;56.96;93684.00;4952861;28;20718;-80
2022/09/02 07:19:51;;;;;;;6.70;5.30;;;;;;;21.21;57.50;93687.09;4970233;28;20038;-81
2022/09/02 07:22:17;;;;;;;5.07;3.75;;;;;;;21.34;56.22;93696.38;4971850;28;20030;-81
2022/09/02 07:24:42;;;;;;;7.03;4.80;;;;;;;21.34;56.49;93701.81;4969431;28;20054;-80
2022/09/02 07:27:09;;;;;;;6.80;3.80;;;;;;;21.20;56.74;93682.84;4970829;28;20146;-81
2022/09/02 07:29:35;;;;;;;5.00;3.88;;;;;;;21.26;55.97;93689.44;4957368;28;20034;-80
2022/09/02 07:32:01;;;;;;;4.63;3.42;;;;;;;21.12;56.06;93665.03;4956326;28;20025;-81
2022/09/02 07:34:28;;;;;;;6.03;2.97;;;;;;;21.39;56.06;93697.94;4960804;28;20479;-79
2022/09/02 07:36:53;;;;;;;10.80;6.32;;;;;;;21.21;56.05;93678.97;4974364;28;20383;-81
2022/09/02 07:39:19;;;;;;;61.08;26.92;;;;;;;21.37;55.73;93700.25;4958875;28;20026;-80
2022/09/02 07:41:47;;;;;;;149.07;62.25;;;;;;;21.39;56.21;93693.31;4974868;28;20014;-81
2022/09/02 07:44:14;;;;;;;24.55;12.52;;;;;;;21.40;56.03;93699.50;4973351;28;20029;-78
2022/09/02 07:46:40;;;;;;;7.10;5.20;;;;;;;21.09;56.17;93643.41;4975830;28;20498;-81
2022/09/02 07:49:08;;;;;;;4.55;3.30;;;;;;;21.51;55.28;93694.09;4972747;28;20034;-80
2022/09/02 07:51:35;;;;;;;8.65;6.13;;;;;;;21.40;55.47;93684.03;4975669;28;20077;-80
2022/09/02 07:54:02;;;;;;;21.95;14.43;;;;;;;21.10;54.86;93626.81;4973645;28;20022;-79
2022/09/02 07:56:28;;;;;;;5.38;4.20;;;;;;;21.25;54.75;93649.22;4975244;28;20048;-80
2022/09/02 07:58:53;;;;;;;6.97;4.13;;;;;;;21.36;54.88;93677.09;4975603;28;20826;-79
2022/09/02 08:01:19;;;;;;;5.60;2.78;;;;;;;21.37;54.84;93675.91;4972443;28;20029;-80
2022/09/02 08:03:45;;;;;;;5.95;3.28;;;;;;;21.54;54.75;93720.38;4972816;28;20092;-79
2022/09/02 08:06:12;;;;;;;4.22;3.63;;;;;;;21.56;53.96;93718.09;4973536;28;20118;-82
2022/09/02 08:08:38;;;;;;;4.50;3.00;;;;;;;21.57;53.00;93722.34;4975062;28;20495;-81
2022/09/02 08:11:05;;;;;;;6.85;2.90;;;;;;;21.36;53.06;93699.47;4973277;28;20038;-81
2022/09/02 08:13:31;;;;;;;3.65;2.80;;;;;;;21.49;53.02;93721.53;4973722;28;20042;-81
2022/09/02 08:15:56;;;;;;;6.32;3.33;;;;;;;21.50;53.23;93725.03;4973021;28;20581;-80
2022/09/02 08:18:22;;;;;;;5.28;4.50;;;;;;;21.48;53.48;93728.09;4972422;28;20224;-81
2022/09/02 08:20:47;;;;;;;5.03;3.15;;;;;;;21.29;54.01;93704.88;4975249;28;20030;-81
2022/09/02 08:23:13;;;;;;;6.43;3.38;;;;;;;21.28;54.00;93699.84;4972487;28;20783;-79
2022/09/02 08:25:39;;;;;;;5.30;3.72;;;;;;;21.32;54.12;93714.16;4974853;28;20030;-80
2022/09/02 08:28:06;;;;;;;5.85;4.22;;;;;;;21.24;54.52;93699.84;4963647;28;20022;-80
2022/09/02 08:30:31;;;;;;;6.18;3.83;;;;;;;21.11;54.26;93677.03;4972502;28;20050;-79
2022/09/02 08:32:57;;;;;;;5.68;3.65;;;;;;;21.41;54.38;93728.09;4973841;28;20113;-81
2022/09/02 08:35:22;;;;;;;4.97;3.78;;;;;;;21.43;54.48;93721.13;4962489;28;20030;-80
2022/09/02 08:37:47;;;;;;;4.45;3.88;;;;;;;21.21;55.09;93687.09;4972275;28;20601;-81
2022/09/02 08:40:17;;;;;;;6.72;4.00;;;;;;;21.22;55.35;93671.63;4972575;28;20075;-79
2022/09/02 08:42:46;;;;;;;5.15;4.03;;;;;;;21.44;55.22;93703.75;4973236;28;20556;-81
2022/09/02 08:45:17;;;;;;;10.35;6.32;;;;;;;21.58;54.86;93721.19;4972724;28;20479;-80
2022/09/02 08:47:46;;;;;;;5.45;3.95;;;;;;;21.59;54.60;93706.50;4971267;28;20506;-79
2022/09/02 08:50:15;;;;;;;5.90;4.30;;;;;;;21.66;53.88;93718.09;4972997;28;20134;-80
2022/09/02 08:53:03;;;;;;;6.18;4.20;;;;;;;21.67;52.97;93716.16;4958195;28;20033;-78
2022/09/02 08:55:38;;;;;;;7.70;3.75;;;;;;;21.45;53.36;93678.25;4959677;28;20142;-80
2022/09/02 08:58:04;;;;;;;4.38;3.97;;;;;;;21.65;53.88;93704.97;4972568;28;20553;-81
2022/09/02 09:00:38;;;;;;;5.72;3.78;;;;;;;21.65;53.84;93704.97;4972869;28;20046;-79
2022/09/02 09:03:06;;;;;;;;;;;;;;;21.71;53.75;93706.13;4972016;28;20032;-79
2022/09/02 09:05:32;;;;;;;5.45;3.72;;;;;;;21.69;54.51;93711.16;4973690;28;20261;-80
2022/09/02 09:08:15;;;;;;;6.70;3.90;;;;;;;21.73;53.69;93710.00;4972113;28;20033;-80
2022/09/02 09:11:00;;;;;;;4.50;3.60;;;;;;;21.78;53.65;93711.53;4973754;28;20483;-78
2022/09/02 09:13:41;;;;;;;;;;;;;;;21.80;54.87;93703.81;4972626;28;20044;-78
2022/09/02 09:16:37;;;;;;;4.75;3.72;;;;;;;21.80;54.03;93696.44;4973426;28;19936;-78
2022/09/02 09:19:14;;;;;;;4.93;4.22;;;;;;;21.85;54.38;93701.47;4972211;28;20530;-80
2022/09/02 09:21:41;;;;;;;8.27;4.05;;;;;;;21.68;55.71;93677.13;4970176;28;20112;-78
2022/09/02 09:24:38;;;;;;;6.85;4.40;;;;;;;21.90;55.32;93708.47;4973786;28;20081;-78
2022/09/02 09:27:12;;;;;;;5.55;4.30;;;;;;;21.96;55.41;93704.19;4949460;28;20392;-79
2022/09/02 09:29:37;;;;;;;4.35;3.95;;;;;;;21.73;53.89;93657.78;4973092;28;20394;-79
2022/09/02 09:32:12;;;;;;;4.85;3.78;;;;;;;21.99;53.57;93686.41;4971267;28;20054;-80
2022/09/02 09:35:01;;;;;;;6.80;4.43;;;;;;;21.86;53.25;93659.72;4971244;28;20039;-77
2022/09/02 09:37:46;;;;;;;6.97;4.65;;;;;;;21.94;52.43;93674.03;4970084;28;20700;-79
2022/09/02 09:40:21;;;;;;;5.75;4.35;;;;;;;22.05;52.19;93696.44;4954702;28;20022;-78
2022/09/02 09:43:11;;;;;;;6.95;4.43;;;;;;;22.09;52.17;93691.81;4971897;28;20038;-79
2022/09/02 09:45:36;;;;;;;6.72;5.22;;;;;;;22.00;53.28;93687.97;4972594;28;20046;-78
2022/09/02 09:48:14;;;;;;;8.05;5.45;;;;;;;22.05;53.18;93682.91;4971312;28;20034;-82
2022/09/02 09:50:39;;;;;;;5.40;4.15;;;;;;;22.13;53.94;93684.47;4971399;28;20035;-80
2022/09/02 09:53:19;;;;;;;5.82;4.68;;;;;;;21.64;53.12;93622.22;4971421;28;20597;-80
2022/09/02 09:55:57;;;;;;;5.70;3.92;;;;;;;22.04;52.69;93673.25;4968486;28;20030;-82
2022/09/02 09:58:29;;;;;;;7.20;5.13;;;;;;;21.95;52.89;93650.44;4971962;28;20066;-81
2022/09/02 10:00:57;;;;;;;9.35;4.93;;;;;;;22.11;52.50;93667.03;4971845;28;20046;-80
2022/09/02 10:03:27;;;;;;;7.75;4.68;;;;;;;21.99;51.81;93662.03;4971087;28;20022;-80
2022/09/02 10:05:58;;;;;;;7.30;5.53;;;;;;;22.17;52.74;93679.81;4971356;28;20022;-81
2022/09/02 10:08:27;;;;;;;10.15;7.55;;;;;;;22.07;52.17;93650.81;4972207;28;20034;-78
2022/09/02 10:11:23;;;;;;;10.32;6.25;;;;;;;22.43;52.19;93686.75;4954833;28;20022;-81
2022/09/02 10:13:49;;;;;;;10.07;6.15;;;;;;;22.47;52.28;93684.81;4956807;28;20034;-79
2022/09/02 10:16:27;;;;;;;12.18;6.60;;;;;;;22.56;51.58;93689.81;4969635;28;20033;-82
2022/09/02 10:18:55;;;;;;;7.70;6.40;;;;;;;22.38;51.40;93654.66;4955747;28;20106;-79
2022/09/02 10:21:51;;;;;;;12.35;7.00;;;;;;;22.63;51.60;93685.13;4970775;28;20022;-80
2022/09/02 10:24:46;;;;;;;11.35;6.93;;;;;;;22.63;50.99;93676.25;4952827;28;20069;-80
2022/09/02 10:27:18;;;;;;;9.15;7.00;;;;;;;22.49;51.25;93660.78;4971461;28;20110;-80
2022/09/02 10:29:53;;;;;;;9.90;7.30;;;;;;;22.59;51.87;93683.59;4970058;28;20030;-80
2022/09/02 10:32:36;;;;;;;8.23;6.47;;;;;;;22.51;52.19;93682.84;4971841;28;20038;-80
2022/09/02 10:35:11;;;;;;;11.18;6.75;;;;;;;22.50;52.90;93691.38;4970326;28;20045;-81
2022/09/02 10:37:51;;;;;;;9.75;6.43;;;;;;;22.62;52.66;93690.97;4971875;28;20035;-80
2022/09/02 10:40:25;;;;;;;10.88;7.20;;;;;;;22.38;52.48;93653.88;4969363;28;20034;-81
2022/09/02 10:43:17;;;;;;;10.25;7.15;;;;;;;22.69;51.92;93690.94;4955457;28;20014;-81
2022/09/02 10:45:49;;;;;;;9.52;7.18;;;;;;;22.51;51.45;93666.59;4971266;28;20034;-80
2022/09/02 10:48:33;;;;;;;13.65;8.60;;;;;;;22.69;51.02;93691.69;4971567;28;20031;-80
2022/09/02 10:51:15;;;;;;;10.52;7.53;;;;;;;22.74;51.74;93683.16;4970736;28;20026;-80
2022/09/02 10:53:58;;;;;;;9.07;6.95;;;;;;;22.77;51.64;93686.28;4955903;28;20037;-79
2022/09/02 10:56:42;;;;;;;13.98;7.53;;;;;;;22.59;51.35;93653.78;4952178;28;20117;-81
2022/09/02 10:59:20;;;;;;;14.95;7.68;;;;;;;22.46;51.79;93628.28;4970795;28;20838;-80
2022/09/02 11:02:24;;;;;;;9.68;7.15;;;;;;;22.90;50.93;93687.41;4970716;28;20510;-80
2022/09/02 11:04:55;;;;;;;12.73;8.27;;;;;;;22.57;52.30;93672.41;4929487;28;20038;-79
2022/09/02 11:07:27;;;;;;;12.85;8.82;;;;;;;22.45;52.28;93649.19;4970806;28;20547;-80
2022/09/02 11:09:59;;;;;;;9.20;7.38;;;;;;;22.72;51.88;93673.91;4972542;28;20034;-79
2022/09/02 11:12:43;;;;;;;17.30;8.75;;;;;;;22.73;51.73;93659.19;4972486;28;20026;-79
2022/09/02 11:15:18;;;;;;;9.45;7.45;;;;;;;22.88;51.68;93668.06;4974384;28;20033;-78
2022/09/02 11:17:54;;;;;;;10.32;8.00;;;;;;;22.61;51.85;93618.94;4974140;28;20472;-80
2022/09/02 11:20:33;;;;;;;12.40;8.30;;;;;;;22.83;50.78;93646.75;4974579;28;20018;-80
2022/09/02 11:23:20;;;;;;;14.30;8.98;;;;;;;23.05;50.77;93673.38;4974940;28;20086;-80
2022/09/02 11:25:58;;;;;;;11.90;7.68;;;;;;;23.03;50.82;93664.09;4974549;28;20031;-79
2022/09/02 11:28:54;;;;;;;10.77;7.80;;;;;;;23.08;52.36;93671.81;4973480;28;20022;-80
2022/09/02 11:31:37;;;;;;;11.10;8.13;;;;;;;22.89;51.89;93650.59;4973356;28;20819;-78
2022/09/02 11:34:26;;;;;;;10.18;7.55;;;;;;;23.06;51.13;93661.38;4958323;28;20407;-81
2022/09/02 11:36:51;;;;;;;12.40;8.68;;;;;;;22.96;50.87;93635.06;4963481;28;20036;-80
2022/09/02 11:39:28;;;;;;;12.75;9.07;;;;;;;23.18;51.43;93668.28;4974364;28;20392;-81
2022/09/02 11:42:12;;;;;;;12.85;9.50;;;;;;;23.25;49.96;93653.91;4973996;28;20014;-79
2022/09/02 11:44:43;;;;;;;12.90;9.45;;;;;;;23.27;49.74;93655.03;4975454;28;20403;-80
2022/09/02 11:47:24;;;;;;;15.68;9.45;;;;;;;23.28;50.01;93640.31;4974276;28;20121;-80